Latest Coastal Weather Observations for Wyndham Airport

IDW60701

Issued at 7:52 am WST Tuesday 26 May 2015 (issued every 10 minutes, with the page automatically refreshed every 10 minutes)

About coastal observations | Map of coastal stations | Coastal observations for WA | Marine services | Other Formats
Station Details ID: 001006 Name: WYNDHAM AERO Lat: -15.51 Lon: 128.15 Height: 3.8 m
Data from the previous 72 hours. | See also: Recent months for locations in Western Australia
Date/Time
WST
Temp

°C
Wind Pressure Rain
since 9am
mm
Weather Cloud Vis
km
Sea
Height
m
Swell
Dir
 
Speed
knots
Gust
knots
hPa Trend Height
m
Period
s
Dir
26/07:30am 24.6 CALM 0 0 1017.3 - 0.0 - - - - - - -
26/07:00am 22.6 CALM 0 3 1017.3 - 0.0 - - - - - - -
26/06:30am 19.7 S 1 3 1017.2 - 0.0 - - - - - - -
26/06:00am 18.7 N 5 6 1016.8 - 0.0 - - - - - - -
26/05:30am 17.3 WSW 4 5 1016.5 - 0.0 - - - - - - -
26/05:00am 17.4 NW 4 5 1016.1 - 0.0 - - - - - - -
26/04:30am 17.8 CALM 0 0 1015.7 - 0.0 - - - - - - -
26/04:00am 18.6 W 2 3 1015.6 - 0.0 - - - - - - -
26/03:30am 19.5 WNW 3 4 1015.4 - 0.0 - - - - - - -
26/03:00am 20.2 WNW 3 4 1015.5 - 0.0 - - - - - - -
26/02:30am 19.3 NW 3 4 1015.6 - 0.0 - - - - - - -
26/02:00am 19.1 W 3 5 1015.8 - 0.0 - - - - - - -
26/01:30am 19.3 SSW 4 5 1015.9 - 0.0 - - - - - - -
26/01:00am 18.6 CALM 0 0 1016.2 - 0.0 - - - - - - -
26/12:30am 18.8 E 2 4 1016.2 - 0.0 - - - - - - -
26/12:00am 20.1 SE 4 5 1016.3 - 0.0 - - - - - - -
 
Date/Time
WST
Temp

°C
Wind Pressure Rain
since 9am
mm
Weather Cloud Vis
km
Sea
Height
m
Swell
Dir
 
Speed
knots
Gust
knots
hPa Trend Height
m
Period
s
Dir
25/11:30pm 20.6 E 3 4 1016.5 - 0.0 - - - - - - -
25/11:00pm 20.3 ESE 4 5 1016.6 - 0.0 - - - - - - -
25/10:30pm 19.3 ESE 4 5 1016.8 - 0.0 - - - - - - -
25/10:00pm 20.0 CALM 0 0 1016.9 - 0.0 - - - - - - -
25/09:30pm 21.4 N 1 3 1017.0 - 0.0 - - - - - - -
25/09:00pm 22.4 N 1 3 1017.0 - 0.0 - - - - - - -
25/08:30pm 22.4 N 3 4 1016.9 - 0.0 - - - - - - -
25/08:00pm 23.1 SE 6 7 1016.6 - 0.0 - - - - - - -
25/07:30pm 25.4 E 7 7 1016.4 - 0.0 - - - - - - -
25/07:00pm 25.6 E 6 6 1016.0 - 0.0 - - - - - - -
25/06:30pm 26.1 E 5 5 1015.6 - 0.0 - - - - - - -
25/06:00pm 26.8 E 4 5 1015.2 - 0.0 - - - - - - -
25/05:30pm 27.9 ESE 4 6 1014.8 - 0.0 - - - - - - -
25/05:00pm 29.2 SE 6 7 1014.5 - 0.0 - - - - - - -
25/04:30pm 31.8 ESE 6 8 1014.2 - 0.0 - - - - - - -
25/04:00pm 32.6 E 4 9 1013.9 - 0.0 - - - - - - -
25/03:30pm 33.2 E 5 11 1013.6 - 0.0 - - - - - - -
25/03:00pm 33.2 NNE 5 8 1013.6 - 0.0 - - - - - - -
25/02:30pm 33.0 NE 6 12 1013.6 - 0.0 - - - - - - -
25/02:00pm 33.6 NNE 5 9 1013.8 - 0.0 - - - - - - -
25/01:30pm 33.1 ENE 3 6 1014.1 - 0.0 - - - - - - -
25/01:00pm 32.5 SE 7 10 1014.3 - 0.0 - - - - - - -
25/12:30pm 32.4 ESE 8 14 1014.9 - 0.0 - - - - - - -
25/12:00pm 31.7 ESE 9 14 1015.5 - 0.0 - - - - - - -
25/11:30am 32.0 ESE 10 17 1016.1 - 0.0 - - - - - - -
25/11:00am 31.3 E 11 16 1016.7 - 0.0 - - - - - - -
25/10:30am 30.5 E 13 19 1017.2 - 0.0 - - - - - - -
25/10:00am 30.4 ESE 11 16 1017.9 - 0.0 - - - - - - -
25/09:30am 29.6 E 12 18 1018.0 - 0.0 - - - - - - -
25/09:00am 29.7 ESE 12 16 1018.2 - 0.0 - - - - - - -
25/08:30am 27.9 SE 9 14 1018.3 - 0.0 - - - - - - -
25/08:00am 26.8 SE 8 10 1018.3 - 0.0 - - - - - - -
25/07:30am 25.3 SE 6 8 1018.2 - 0.0 - - - - - - -
25/07:00am 22.1 CALM 0 0 1018.0 - 0.0 - - - - - - -
25/06:30am 19.2 E 4 5 1017.9 - 0.0 - - - - - - -
25/06:00am 18.9 E 5 5 1017.3 - 0.0 - - - - - - -
25/05:30am 17.3 E 6 7 1016.9 - 0.0 - - - - - - -
25/05:00am 18.1 E 5 6 1016.6 - 0.0 - - - - - - -
25/04:30am 15.7 E 5 6 1016.2 - 0.0 - - - - - - -
25/04:00am 16.0 ESE 5 5 1016.0 - 0.0 - - - - - - -
25/03:30am 16.4 ENE 5 6 1015.9 - 0.0 - - - - - - -
25/03:00am 18.5 ENE 5 6 1015.8 - 0.0 - - - - - - -
25/02:30am 16.0 ESE 4 5 1015.8 - 0.0 - - - - - - -
25/02:00am 16.0 ENE 5 5 1015.9 - 0.0 - - - - - - -
25/01:30am 17.2 ENE 5 6 1016.1 - 0.0 - - - - - - -
25/01:00am 18.7 ESE 6 7 1016.2 - 0.0 - - - - - - -
25/12:30am 18.0 SE 6 7 1016.3 - 0.0 - - - - - - -
25/12:00am 19.0 ESE 7 8 1016.1 - 0.0 - - - - - - -
 
Date/Time
WST
Temp

°C
Wind Pressure Rain
since 9am
mm
Weather Cloud Vis
km
Sea
Height
m
Swell
Dir
 
Speed
knots
Gust
knots
hPa Trend Height
m
Period
s
Dir
24/11:30pm 20.1 ESE 6 7 1016.2 - 0.0 - - - - - - -
24/11:00pm 19.0 CALM 0 0 1016.2 - 0.0 - - - - - - -
24/10:30pm 20.4 CALM 0 0 1016.2 - 0.0 - - - - - - -
24/10:00pm 21.7 CALM 0 4 1016.4 - 0.0 - - - - - - -
24/09:30pm 22.0 CALM 0 0 1016.6 - 0.0 - - - - - - -
24/09:00pm 22.8 ENE 5 6 1016.7 - 0.0 - - - - - - -
24/08:30pm 24.3 E 6 7 1016.5 - 0.0 - - - - - - -
24/08:00pm 24.1 E 7 8 1016.2 - 0.0 - - - - - - -
24/07:30pm 24.6 E 5 6 1015.8 - 0.0 - - - - - - -
24/07:00pm 24.6 ESE 6 6 1015.4 - 0.0 - - - - - - -
24/06:30pm 25.0 ESE 7 7 1015.1 - 0.0 - - - - - - -
24/06:00pm 25.7 SE 5 7 1014.6 - 0.0 - - - - - - -
24/05:30pm 27.5 E 6 8 1014.2 - 0.0 - - - - - - -
24/05:00pm 29.0 E 6 8 1013.9 - 0.0 - - - - - - -
24/04:30pm 31.2 SE 6 8 1013.6 - 0.0 - - - - - - -
24/04:00pm 32.0 ESE 6 9 1013.3 - 0.0 - - - - - - -
24/03:30pm 32.1 SSE 6 9 1013.3 - 0.0 - - - - - - -
24/03:00pm 32.3 ESE 6 9 1013.2 - 0.0 - - - - - - -
24/02:30pm 32.2 E 4 9 1013.1 - 0.0 - - - - - - -
24/02:00pm 32.0 SE 5 8 1013.4 - 0.0 - - - - - - -
24/01:30pm 32.0 ESE 6 10 1013.6 - 0.0 - - - - - - -
24/01:00pm 31.6 SE 9 13 1013.9 - 0.0 - - - - - - -
24/12:30pm 31.5 ESE 8 14 1014.4 - 0.0 - - - - - - -
24/12:00pm 30.6 SSE 8 13 1015.0 - 0.0 - - - - - - -
24/11:30am 30.2 ESE 9 15 1015.4 - 0.0 - - - - - - -
24/11:00am 30.2 E 10 15 1015.8 - 0.0 - - - - - - -
24/10:30am 29.1 ESE 10 15 1016.5 - 0.0 - - - - - - -
24/10:00am 28.9 ESE 12 17 1016.8 - 0.0 - - - - - - -
24/09:30am 28.3 ESE 12 16 1017.2 - 0.0 - - - - - - -
24/09:00am 27.4 ESE 14 19 1017.3 - 0.0 - - - - - - -
24/08:30am 26.8 E 14 21 1017.7 - 0.0 - - - - - - -
24/08:00am 26.3 ESE 12 17 1017.6 - 0.0 - - - - - - -
24/07:30am 24.4 ESE 6 7 1017.5 - 0.0 - - - - - - -
24/07:00am 21.9 CALM 0 0 1017.5 - 0.0 - - - - - - -
24/06:30am 19.8 E 4 5 1017.3 - 0.0 - - - - - - -
24/06:00am 17.6 SE 7 8 1016.8 - 0.0 - - - - - - -
24/05:30am 17.2 SSE 6 6 1016.4 - 0.0 - - - - - - -
24/05:00am 17.0 SE 4 5 1016.0 - 0.0 - - - - - - -
24/04:30am 18.0 ESE 3 3 1015.9 - 0.0 - - - - - - -
24/04:00am 17.7 SE 3 4 1015.6 - 0.0 - - - - - - -
24/03:30am 19.8 E 6 6 1015.3 - 0.0 - - - - - - -
24/03:00am 19.5 E 5 6 1015.4 - 0.0 - - - - - - -
24/02:30am 18.3 SE 7 7 1015.0 - 0.0 - - - - - - -
24/02:00am 20.0 SE 8 9 1015.2 - 0.0 - - - - - - -
24/01:30am 20.1 SE 6 7 1015.2 - 0.0 - - - - - - -
24/01:00am 20.8 ESE 7 8 1015.3 - 0.0 - - - - - - -
24/12:30am 23.0 E 9 10 1015.2 - 0.0 - - - - - - -
24/12:00am 21.4 ESE 7 12 1015.1 - 0.0 - - - - - - -
 
Date/Time
WST
Temp

°C
Wind Pressure Rain
since 9am
mm
Weather Cloud Vis
km
Sea
Height
m
Swell
Dir
 
Speed
knots
Gust
knots
hPa Trend Height
m
Period
s
Dir
23/11:30pm 19.5 SE 6 7 1015.3 - 0.0 - - - - - - -
23/11:00pm 21.6 E 3 5 1015.1 - 0.0 - - - - - - -
23/10:30pm 21.8 CALM 0 2 1015.2 - 0.0 - - - - - - -
23/10:00pm 23.8 E 3 4 1015.1 - 0.0 - - - - - - -
23/09:30pm 24.1 E 4 4 1015.2 - 0.0 - - - - - - -
23/09:00pm 24.0 E 5 5 1015.3 - 0.0 - - - - - - -
23/08:30pm 24.3 E 5 6 1015.2 - 0.0 - - - - - - -
23/08:00pm 25.3 E 7 8 1015.2 - 0.0 - - - - - - -
23/07:30pm 25.3 E 6 7 1015.3 - 0.0 - - - - - - -
23/07:00pm 25.9 E 6 6 1015.1 - 0.0 - - - - - - -
23/06:30pm 25.4 ESE 6 7 1014.8 - 0.0 - - - - - - -
23/06:00pm 26.3 ESE 5 7 1014.6 - 0.0 - - - - - - -
23/05:30pm 27.9 ESE 8 10 1014.3 - 0.0 - - - - - - -
23/05:00pm 29.3 ESE 8 10 1014.0 - 0.0 - - - - - - -
23/04:30pm 31.0 SE 8 11 1013.7 - 0.0 - - - - - - -
23/04:00pm 31.8 SE 9 11 1013.3 - 0.0 - - - - - - -
23/03:30pm 32.1 SSE 8 13 1013.1 - 0.0 - - - - - - -
23/03:00pm 32.8 ESE 8 12 1013.3 - 0.0 - - - - - - -
23/02:30pm 32.7 ESE 4 10 1013.4 - 0.0 - - - - - - -
23/02:00pm 32.7 E 7 12 1013.7 - 0.0 - - - - - - -
23/01:30pm 32.6 SE 7 13 1014.0 - 0.0 - - - - - - -
23/01:00pm 32.1 ESE 7 13 1014.4 - 0.0 - - - - - - -
23/12:30pm 32.3 ESE 7 13 1014.9 - 0.0 - - - - - - -
23/12:00pm 31.0 ESE 6 10 1015.4 - 0.0 - - - - - - -
23/11:30am 31.7 ESE 8 13 1016.1 - 0.0 - - - - - - -
23/11:00am 30.9 SE 9 12 1016.6 - 0.0 - - - - - - -
23/10:30am 30.9 ESE 8 13 1017.1 - 0.0 - - - - - - -
23/10:00am 29.3 ESE 9 14 1017.4 - 0.0 - - - - - - -
23/09:30am 28.8 ESE 11 17 1018.0 - 0.0 - - - - - - -
23/09:00am 28.7 ESE 11 16 1018.3 - 0.0 - - - - - - -
23/08:30am 28.1 ESE 10 16 1018.3 - 0.0 - - - - - - -
23/08:00am 27.0 ESE 11 15 1018.4 - 0.0 - - - - - - -

Other Formats:

Comma delimited format used in spreadsheet applications
http://www.bom.gov.au/fwo/IDW60701/IDW60701.95214.axf

JavaScript Object Notation format (JSON) in row-major order
http://www.bom.gov.au/fwo/IDW60701/IDW60701.95214.json